Time;durP1;ratioP1;P1;durP2;ratioP2;P2;SDS_P1;SDS_P2;PMS_P1;PMS_P2;Temp;Humidity;BMP_temperature;BMP_pressure;BME280_temperature;BME280_humidity;BME280_pressure;Samples;Min_cycle;Max_cycle;Signal;HPM_P1;HPM_P2
2022/10/09 00:01:56;;;;;;;8.20;2.83;;;14.40;99.90;;;;;;5095933;28;20023;-87
2022/10/09 00:04:22;;;;;;;6.32;2.65;;;14.40;99.90;;;;;;5133918;27;20047;-87
2022/10/09 00:06:47;;;;;;;7.80;2.70;;;14.40;99.90;;;;;;5116169;27;20026;-88
2022/10/09 00:09:13;;;;;;;7.60;2.80;;;14.30;99.90;;;;;;5134845;27;20031;-88
2022/10/09 00:11:39;;;;;;;5.40;2.30;;;14.40;99.90;;;;;;5115877;27;20019;-87
2022/10/09 00:14:04;;;;;;;6.38;2.80;;;14.00;99.90;;;;;;5115492;27;20027;-88
2022/10/09 00:16:30;;;;;;;5.70;2.50;;;14.00;99.90;;;;;;5134749;27;20019;-87
2022/10/09 00:18:57;;;;;;;6.40;2.40;;;14.00;99.90;;;;;;5134230;27;20114;-88
2022/10/09 00:21:31;;;;;;;8.32;2.55;;;14.10;99.90;;;;;;5134615;27;20079;-88
2022/10/09 00:24:00;;;;;;;4.53;2.58;;;14.10;99.90;;;;;;5134349;27;20031;-87
2022/10/09 00:26:26;;;;;;;6.93;2.60;;;14.40;99.90;;;;;;5115880;27;20027;-88
2022/10/09 00:28:52;;;;;;;7.70;2.63;;;13.90;99.90;;;;;;5134031;27;20110;-88
2022/10/09 00:31:19;;;;;;;7.07;2.20;;;13.90;99.90;;;;;;5115774;27;20118;-88
2022/10/09 00:33:44;;;;;;;6.50;2.53;;;13.80;99.90;;;;;;5115597;27;20142;-88
2022/10/09 00:36:18;;;;;;;7.07;2.15;;;13.70;99.90;;;;;;5115764;27;20542;-87
2022/10/09 00:38:44;;;;;;;9.25;2.78;;;13.70;99.90;;;;;;5134307;27;20022;-88
2022/10/09 00:41:14;;;;;;;5.40;2.63;;;13.70;99.90;;;;;;5134009;27;20027;-87
2022/10/09 00:43:48;;;;;;;5.28;2.28;;;13.80;99.90;;;;;;5134109;27;20043;-87
2022/10/09 00:46:44;;;;;;;7.15;2.42;;;13.70;99.90;;;;;;5123918;27;20032;-88
2022/10/09 00:49:10;;;;;;;4.00;2.33;;;13.80;99.90;;;;;;5113681;28;20094;-87
2022/10/09 00:51:36;;;;;;;6.80;2.30;;;13.70;99.90;;;;;;5095108;28;20114;-87
2022/10/09 00:54:05;;;;;;;6.03;2.25;;;13.70;99.90;;;;;;5095379;28;20170;-87
2022/10/09 00:56:32;;;;;;;4.57;2.58;;;13.70;99.90;;;;;;5112818;28;20518;-87
2022/10/09 00:58:59;;;;;;;7.70;3.10;;;13.70;99.90;;;;;;5113595;28;20535;-87
2022/10/09 01:01:24;;;;;;;3.88;2.30;;;13.80;99.90;;;;;;5095389;28;20396;-88
2022/10/09 01:03:50;;;;;;;5.88;2.40;;;13.80;99.90;;;;;;5094978;28;20027;-88
2022/10/09 01:06:39;;;;;;;6.63;2.78;;;13.70;99.90;;;;;;5113145;28;20024;-87
2022/10/09 01:09:17;;;;;;;5.00;2.40;;;13.60;99.90;;;;;;5113502;28;20098;-87
2022/10/09 01:11:55;;;;;;;4.50;2.22;;;13.50;99.90;;;;;;5095021;28;20046;-87
2022/10/09 01:14:27;;;;;;;6.47;2.40;;;13.40;99.90;;;;;;5113266;28;20015;-87
2022/10/09 01:17:01;;;;;;;4.05;2.20;;;13.40;99.90;;;;;;5113277;28;20035;-87
2022/10/09 01:20:00;;;;;;;6.25;2.42;;;13.30;99.90;;;;;;5113347;28;20024;-87
2022/10/09 01:22:35;;;;;;;4.07;2.15;;;13.20;99.90;;;;;;5030776;28;20052;-88
2022/10/09 01:25:25;;;;;;;7.07;2.55;;;13.20;99.90;;;;;;5015557;28;20132;-88
2022/10/09 01:27:52;;;;;;;4.40;2.30;;;13.20;99.90;;;;;;5034553;28;20034;-88
2022/10/09 01:30:18;;;;;;;4.07;2.60;;;13.30;99.90;;;;;;5035766;28;20060;-87
2022/10/09 01:32:49;;;;;;;5.22;2.40;;;13.20;99.90;;;;;;5054307;28;20053;-87
2022/10/09 01:35:16;;;;;;;5.15;2.60;;;13.00;99.90;;;;;;5054503;28;20053;-88
2022/10/09 01:37:44;;;;;;;4.85;2.25;;;13.00;99.90;;;;;;5054533;28;20458;-87
2022/10/09 01:40:13;;;;;;;8.15;2.95;;;12.90;99.90;;;;;;5053875;28;20040;-88
2022/10/09 01:42:39;;;;;;;4.85;2.17;;;12.90;99.90;;;;;;5037672;28;20512;-87
2022/10/09 01:45:06;;;;;;;7.47;2.50;;;12.90;99.90;;;;;;5054516;28;20033;-87
2022/10/09 01:47:31;;;;;;;4.80;2.47;;;12.80;99.90;;;;;;5054312;28;20144;-87
2022/10/09 01:50:07;;;;;;;4.60;2.35;;;12.80;99.90;;;;;;5054004;28;20048;-87
2022/10/09 01:52:58;;;;;;;5.32;2.53;;;12.70;99.90;;;;;;5054329;28;20037;-88
2022/10/09 01:55:45;;;;;;;6.28;2.95;;;12.60;99.90;;;;;;5054220;28;20029;-87
2022/10/09 01:58:32;;;;;;;5.03;2.17;;;12.70;99.90;;;;;;5055680;28;20458;-87
2022/10/09 02:01:00;;;;;;;7.25;2.72;;;12.60;99.90;;;;;;5077960;28;20081;-88
2022/10/09 02:03:28;;;;;;;5.10;2.60;;;12.60;99.90;;;;;;5120789;27;20114;-87
2022/10/09 02:05:55;;;;;;;9.27;2.50;;;12.60;99.90;;;;;;5136876;27;20500;-87
2022/10/09 02:08:22;;;;;;;5.82;2.53;;;12.60;99.90;;;;;;5118267;27;20037;-87
2022/10/09 02:10:53;;;;;;;7.00;3.03;;;12.60;99.90;;;;;;5118728;27;20023;-87
2022/10/09 02:13:19;;;;;;;5.85;2.72;;;12.70;99.90;;;;;;5136770;27;20470;-87
2022/10/09 02:15:53;;;;;;;4.43;2.80;;;12.60;99.90;;;;;;5137113;27;20067;-87
2022/10/09 02:18:25;;;;;;;7.32;2.50;;;12.50;99.90;;;;;;5137054;27;20355;-87
2022/10/09 02:20:55;;;;;;;4.97;2.47;;;12.60;99.90;;;;;;5136994;27;20046;-87
2022/10/09 02:23:24;;;;;;;5.55;2.80;;;12.70;99.90;;;;;;5136443;27;20027;-87
2022/10/09 02:25:51;;;;;;;5.63;2.50;;;12.70;99.90;;;;;;5136850;27;20399;-87
2022/10/09 02:28:17;;;;;;;6.38;2.80;;;12.90;99.90;;;;;;5118281;27;20023;-88
2022/10/09 02:30:55;;;;;;;7.18;3.72;;;12.80;99.90;;;;;;5113424;28;20097;-88
2022/10/09 02:33:26;;;;;;;5.35;3.00;;;12.70;99.90;;;;;;5115795;28;20019;-86
2022/10/09 02:35:52;;;;;;;4.47;2.85;;;12.80;99.90;;;;;;5096941;28;20031;-87
2022/10/09 02:38:17;;;;;;;7.88;3.45;;;13.00;99.90;;;;;;5115587;28;20080;-87
2022/10/09 02:40:44;;;;;;;7.95;3.28;;;12.60;99.90;;;;;;5098144;28;20128;-88
2022/10/09 02:43:10;;;;;;;5.60;3.30;;;12.70;99.90;;;;;;5115860;28;20023;-88
2022/10/09 02:45:35;;;;;;;5.63;3.60;;;13.00;99.90;;;;;;5115581;28;20031;-87
2022/10/09 02:48:01;;;;;;;5.32;3.22;;;13.00;99.90;;;;;;5115767;28;20030;-87
2022/10/09 02:50:27;;;;;;;9.30;3.65;;;12.80;99.90;;;;;;5097643;28;20069;-88
2022/10/09 02:52:52;;;;;;;5.43;3.20;;;12.90;99.90;;;;;;5097182;28;20073;-88
2022/10/09 02:55:18;;;;;;;8.98;3.25;;;12.90;99.90;;;;;;5097289;28;20031;-88
2022/10/09 02:57:43;;;;;;;6.32;3.45;;;12.90;99.90;;;;;;5097345;28;20377;-88
2022/10/09 03:00:10;;;;;;;7.75;3.35;;;12.70;99.90;;;;;;5097139;28;20031;-88
2022/10/09 03:02:35;;;;;;;6.85;4.05;;;12.80;99.90;;;;;;5102083;27;20023;-87
2022/10/09 03:05:01;;;;;;;7.78;3.53;;;12.80;99.90;;;;;;5135703;27;20066;-88
2022/10/09 03:07:26;;;;;;;6.97;3.45;;;12.80;99.90;;;;;;5135661;27;20019;-88
2022/10/09 03:09:53;;;;;;;6.97;3.70;;;12.80;99.90;;;;;;5135805;27;20107;-88
2022/10/09 03:12:20;;;;;;;9.02;3.88;;;13.20;99.90;;;;;;5135979;27;20076;-88
2022/10/09 03:14:46;;;;;;;6.55;3.58;;;12.80;99.90;;;;;;5135868;27;20035;-87
2022/10/09 03:17:12;;;;;;;6.53;3.72;;;12.80;99.90;;;;;;5117387;27;20039;-87
2022/10/09 03:19:37;;;;;;;8.30;3.78;;;12.70;99.90;;;;;;5135118;27;20479;-87
2022/10/09 03:22:03;;;;;;;8.43;4.72;;;12.70;99.90;;;;;;5135782;27;20023;-86
2022/10/09 03:24:28;;;;;;;10.70;4.18;;;12.70;99.90;;;;;;5135364;27;20037;-87
2022/10/09 03:26:54;;;;;;;8.00;4.05;;;12.80;99.90;;;;;;5117009;27;20531;-86
2022/10/09 03:29:20;;;;;;;7.82;3.90;;;12.70;99.90;;;;;;5135443;27;20027;-87
2022/10/09 03:31:45;;;;;;;7.45;3.92;;;12.70;99.90;;;;;;5121974;27;20028;-87
2022/10/09 03:34:11;;;;;;;8.30;4.03;;;12.80;99.90;;;;;;5114235;28;20047;-87
2022/10/09 03:36:37;;;;;;;7.80;3.60;;;12.80;99.90;;;;;;5096611;28;20027;-87
2022/10/09 03:39:03;;;;;;;6.90;3.92;;;12.80;99.90;;;;;;5114598;28;20536;-87
2022/10/09 03:41:28;;;;;;;6.38;4.10;;;12.80;99.90;;;;;;5096497;28;20034;-88
2022/10/09 03:43:54;;;;;;;7.03;4.60;;;12.80;99.90;;;;;;5114387;28;20133;-87
2022/10/09 03:46:19;;;;;;;7.32;4.18;;;12.80;99.90;;;;;;5114479;28;20038;-88
2022/10/09 03:48:45;;;;;;;6.50;4.10;;;12.70;99.90;;;;;;5114022;28;20055;-87
2022/10/09 03:51:10;;;;;;;9.00;4.50;;;12.70;99.90;;;;;;5114504;28;20028;-87
2022/10/09 03:53:36;;;;;;;9.05;4.03;;;12.70;99.90;;;;;;5114001;28;20031;-88
2022/10/09 03:56:02;;;;;;;7.85;3.95;;;12.80;99.90;;;;;;5114419;28;20054;-87
2022/10/09 03:58:27;;;;;;;6.55;4.30;;;12.80;99.90;;;;;;5114629;28;20024;-87
2022/10/09 04:00:53;;;;;;;8.10;4.35;;;12.90;99.90;;;;;;5096120;28;20122;-87
2022/10/09 04:03:19;;;;;;;8.68;4.43;;;12.90;99.90;;;;;;5106539;27;20072;-88
2022/10/09 04:05:45;;;;;;;7.47;4.15;;;12.90;99.90;;;;;;5134913;27;20076;-87
2022/10/09 04:08:10;;;;;;;11.60;4.90;;;12.80;99.90;;;;;;5116249;27;20055;-88
2022/10/09 04:10:36;;;;;;;6.55;3.80;;;12.80;99.90;;;;;;5134508;27;20027;-87
2022/10/09 04:13:02;;;;;;;6.18;4.32;;;12.80;99.90;;;;;;5134701;27;20126;-87
2022/10/09 04:15:27;;;;;;;6.72;4.35;;;12.90;99.90;;;;;;5116153;27;20034;-87
2022/10/09 04:17:53;;;;;;;9.23;3.92;;;12.80;99.90;;;;;;5134128;27;20084;-88
2022/10/09 04:20:19;;;;;;;5.20;4.10;;;12.80;99.90;;;;;;5134621;27;20030;-87
2022/10/09 04:22:45;;;;;;;9.18;4.65;;;12.70;99.90;;;;;;5134683;27;20106;-86
2022/10/09 04:25:11;;;;;;;8.38;4.75;;;12.80;99.90;;;;;;5134363;27;20530;-87
2022/10/09 04:27:36;;;;;;;8.35;4.70;;;12.80;99.90;;;;;;5116167;27;20215;-88
2022/10/09 04:30:03;;;;;;;7.65;4.55;;;12.80;99.90;;;;;;5134170;27;20030;-87
2022/10/09 04:32:29;;;;;;;8.68;5.03;;;12.70;99.90;;;;;;5095776;28;20020;-88
2022/10/09 04:34:55;;;;;;;8.63;5.30;;;12.60;99.90;;;;;;5113533;28;20411;-88
2022/10/09 04:37:20;;;;;;;9.45;4.65;;;12.40;99.90;;;;;;5113604;28;20076;-87
2022/10/09 04:39:46;;;;;;;6.78;4.55;;;12.60;99.90;;;;;;5113759;28;20107;-88
2022/10/09 04:42:12;;;;;;;10.52;4.93;;;12.60;99.90;;;;;;5113716;28;20028;-88
2022/10/09 04:44:37;;;;;;;8.77;6.15;;;12.60;99.90;;;;;;5095278;28;20067;-87
2022/10/09 04:47:03;;;;;;;9.40;7.28;;;12.50;99.90;;;;;;5113213;28;20035;-88
2022/10/09 04:49:28;;;;;;;10.20;6.82;;;12.40;99.90;;;;;;5095143;28;20126;-88
2022/10/09 04:51:54;;;;;;;11.93;6.20;;;12.60;99.90;;;;;;5113729;28;20102;-88
2022/10/09 04:54:20;;;;;;;7.55;5.03;;;12.90;99.90;;;;;;5095049;28;20024;-88
2022/10/09 04:56:45;;;;;;;9.48;5.25;;;13.00;99.90;;;;;;5113497;28;20019;-87
2022/10/09 04:59:11;;;;;;;9.45;5.30;;;12.60;99.90;;;;;;5094683;28;20383;-87
2022/10/09 05:01:37;;;;;;;7.68;5.22;;;12.70;99.90;;;;;;5113087;28;20023;-88
2022/10/09 05:04:02;;;;;;;11.48;5.03;;;12.60;99.90;;;;;;5130452;28;20391;-88
2022/10/09 05:06:28;;;;;;;9.13;5.32;;;12.50;99.90;;;;;;5115523;28;20020;-87
2022/10/09 05:08:54;;;;;;;8.40;4.72;;;12.40;99.90;;;;;;5133719;28;20486;-87
2022/10/09 05:11:22;;;;;;;10.40;5.03;;;12.80;99.90;;;;;;5133915;28;20058;-87
2022/10/09 05:13:51;;;;;;;9.43;5.35;;;12.60;99.90;;;;;;5115803;28;20072;-87
2022/10/09 05:16:21;;;;;;;8.25;5.28;;;12.50;99.90;;;;;;5133204;28;20534;-87
2022/10/09 05:18:49;;;;;;;7.13;4.88;;;12.50;99.90;;;;;;5133922;28;20395;-87
2022/10/09 05:21:15;;;;;;;11.05;5.43;;;12.60;99.90;;;;;;5115349;28;20027;-88
2022/10/09 05:23:41;;;;;;;10.73;5.00;;;12.60;99.90;;;;;;5133267;28;20027;-86
2022/10/09 05:26:11;;;;;;;7.95;5.30;;;12.60;99.90;;;;;;5133946;28;20044;-88
2022/10/09 05:28:36;;;;;;;10.88;7.95;;;12.90;99.90;;;;;;5133873;28;20509;-87
2022/10/09 05:31:03;;;;;;;15.45;12.70;;;12.80;99.90;;;;;;5126178;28;20024;-87
2022/10/09 05:33:30;;;;;;;15.57;12.80;;;12.60;99.90;;;;;;5112900;28;20027;-87
2022/10/09 05:35:58;;;;;;;15.77;11.20;;;12.50;99.90;;;;;;5094981;28;20024;-87
2022/10/09 05:38:24;;;;;;;11.45;7.78;;;12.60;99.90;;;;;;5112746;28;20472;-87
2022/10/09 05:41:01;;;;;;;11.77;8.02;;;12.50;99.90;;;;;;5113061;28;20047;-88
2022/10/09 05:43:29;;;;;;;11.80;8.23;;;12.40;99.90;;;;;;5112871;28;20012;-87
2022/10/09 05:46:03;;;;;;;12.05;10.45;;;12.20;99.90;;;;;;5112744;28;20533;-87
2022/10/09 05:48:28;;;;;;;17.50;13.05;;;12.30;99.90;;;;;;5113067;28;20084;-88
2022/10/09 05:51:04;;;;;;;11.38;9.30;;;12.40;99.90;;;;;;5113105;28;20118;-87
2022/10/09 05:53:29;;;;;;;13.48;10.80;;;12.60;99.90;;;;;;5128620;28;20024;-88
2022/10/09 05:55:55;;;;;;;12.88;9.38;;;12.50;99.90;;;;;;5094600;28;20027;-87
2022/10/09 05:58:21;;;;;;;12.70;9.73;;;12.50;99.90;;;;;;5095032;28;20020;-88
2022/10/09 06:00:46;;;;;;;13.00;9.43;;;12.40;99.90;;;;;;5094413;28;20032;-88
2022/10/09 06:03:12;;;;;;;12.25;8.98;;;12.40;99.90;;;;;;5122573;28;20115;-87
2022/10/09 06:05:37;;;;;;;14.60;9.63;;;12.40;99.90;;;;;;5133233;28;20035;-87
2022/10/09 06:08:03;;;;;;;12.90;8.35;;;12.40;99.90;;;;;;5132928;28;20054;-88
2022/10/09 06:10:28;;;;;;;11.85;7.70;;;12.30;99.90;;;;;;5133490;27;20027;-87
2022/10/09 06:12:55;;;;;;;12.75;7.95;;;12.50;99.90;;;;;;5136112;27;20483;-87
2022/10/09 06:15:21;;;;;;;9.82;8.00;;;12.50;99.90;;;;;;5118196;27;20038;-88
2022/10/09 06:17:46;;;;;;;12.13;7.85;;;12.40;99.90;;;;;;5117955;27;20407;-84
2022/10/09 06:20:12;;;;;;;12.70;7.90;;;12.40;99.90;;;;;;5135785;27;20039;-84
2022/10/09 06:22:37;;;;;;;13.15;7.57;;;12.70;99.90;;;;;;5135651;27;20538;-84
2022/10/09 06:25:03;;;;;;;11.25;7.57;;;12.80;99.90;;;;;;5135768;27;20035;-84
2022/10/09 06:27:29;;;;;;;11.63;7.50;;;12.90;99.90;;;;;;5135734;27;20016;-84
2022/10/09 06:29:54;;;;;;;13.23;7.60;;;13.10;99.90;;;;;;5135368;27;20031;-84
2022/10/09 06:32:20;;;;;;;11.23;6.35;;;13.10;99.90;;;;;;5114517;28;20028;-85
2022/10/09 06:34:46;;;;;;;8.93;6.15;;;13.00;99.90;;;;;;5114939;28;20065;-84
2022/10/09 06:37:11;;;;;;;12.88;6.43;;;13.00;99.90;;;;;;5114983;28;20023;-87
2022/10/09 06:39:37;;;;;;;10.93;5.80;;;13.00;99.90;;;;;;5115759;28;20383;-85
2022/10/09 06:42:03;;;;;;;10.48;6.55;;;13.00;99.90;;;;;;5114800;28;20108;-84
2022/10/09 06:44:28;;;;;;;10.27;6.55;;;12.80;99.90;;;;;;5114452;28;20032;-84
2022/10/09 06:46:54;;;;;;;10.73;6.30;;;13.00;99.90;;;;;;5114802;28;20020;-85
2022/10/09 06:49:20;;;;;;;12.02;6.63;;;13.10;99.90;;;;;;5114896;28;20034;-85
2022/10/09 06:51:45;;;;;;;8.02;5.95;;;13.10;99.90;;;;;;5114660;28;20167;-85
2022/10/09 06:54:14;;;;;;;8.68;6.35;;;13.10;99.90;;;;;;5114393;28;20515;-83
2022/10/09 06:56:39;;;;;;;9.05;6.43;;;13.40;99.90;;;;;;5115290;28;20088;-84
2022/10/09 06:59:06;;;;;;;15.07;6.50;;;13.60;99.90;;;;;;5114577;28;20032;-91
2022/10/09 07:01:33;;;;;;;9.70;6.45;;;13.60;99.90;;;;;;5116807;28;20031;-91
2022/10/09 07:04:05;;;;;;;9.77;6.50;;;13.50;99.90;;;;;;5115610;28;20122;-90
2022/10/09 07:06:32;;;;;;;11.60;6.28;;;13.50;99.90;;;;;;5114409;28;20070;-89
2022/10/09 07:09:04;;;;;;;11.95;6.70;;;13.40;99.90;;;;;;5096227;28;20063;-87
2022/10/09 07:11:33;;;;;;;8.55;6.60;;;13.50;99.90;;;;;;5095883;28;20408;-86
2022/10/09 07:14:01;;;;;;;10.07;6.32;;;13.50;99.90;;;;;;5114191;28;20034;-86
2022/10/09 07:16:34;;;;;;;10.02;6.90;;;13.50;99.90;;;;;;5113898;28;20023;-86
2022/10/09 07:19:02;;;;;;;10.43;6.45;;;13.50;99.90;;;;;;5114011;28;20052;-88
2022/10/09 07:21:29;;;;;;;9.20;6.50;;;13.50;99.90;;;;;;5115709;28;20054;-88
2022/10/09 07:23:54;;;;;;;10.30;6.55;;;13.50;99.90;;;;;;5117334;28;20040;-87
2022/10/09 07:26:26;;;;;;;9.00;6.25;;;13.60;99.90;;;;;;5113897;28;20050;-88
2022/10/09 07:28:52;;;;;;;8.55;6.22;;;13.60;99.90;;;;;;5113950;28;20027;-87
2022/10/09 07:31:17;;;;;;;11.55;6.68;;;13.90;99.90;;;;;;5113460;28;20088;-87
2022/10/09 07:33:47;;;;;;;11.57;7.03;;;13.80;99.90;;;;;;5113877;28;20513;-87
2022/10/09 07:36:12;;;;;;;8.38;6.40;;;13.90;99.90;;;;;;5113882;28;20050;-88
2022/10/09 07:38:38;;;;;;;9.70;7.22;;;13.80;99.90;;;;;;5114229;28;20019;-86
2022/10/09 07:41:07;;;;;;;8.40;6.40;;;13.80;99.90;;;;;;5113960;28;20027;-88
2022/10/09 07:43:40;;;;;;;8.00;6.55;;;13.80;99.90;;;;;;5095782;28;20361;-87
2022/10/09 07:46:10;;;;;;;8.48;6.03;;;14.00;99.90;;;;;;5113627;28;20445;-87
2022/10/09 07:48:36;;;;;;;7.80;6.40;;;14.00;99.90;;;;;;5114046;28;20167;-88
2022/10/09 07:51:16;;;;;;;12.95;6.72;;;14.20;99.90;;;;;;5113552;28;20027;-87
2022/10/09 07:53:43;;;;;;;16.27;8.30;;;14.10;99.90;;;;;;5114229;28;20024;-87
2022/10/09 07:56:14;;;;;;;9.60;6.65;;;14.10;99.90;;;;;;5113313;28;20016;-88
2022/10/09 07:58:41;;;;;;;9.07;6.15;;;14.00;99.90;;;;;;5113612;28;20506;-88
2022/10/09 08:01:08;;;;;;;9.32;7.00;;;14.10;99.90;;;;;;5113728;28;20027;-87
2022/10/09 08:03:35;;;;;;;12.57;6.40;;;14.00;99.90;;;;;;5094591;28;20023;-87
2022/10/09 08:06:01;;;;;;;7.45;6.05;;;14.20;99.90;;;;;;5095542;28;20545;-87
2022/10/09 08:08:26;;;;;;;10.65;6.90;;;14.50;99.90;;;;;;5113259;28;20024;-88
2022/10/09 08:10:52;;;;;;;12.13;6.32;;;14.70;99.90;;;;;;5113065;28;20027;-87
2022/10/09 08:13:18;;;;;;;9.10;6.68;;;15.00;99.90;;;;;;5113315;28;20023;-86
2022/10/09 08:15:44;;;;;;;8.13;6.22;;;15.20;99.90;;;;;;5113316;28;20016;-87
2022/10/09 08:18:10;;;;;;;9.50;6.40;;;15.40;99.90;;;;;;5112713;28;20040;-88
2022/10/09 08:20:37;;;;;;;9.10;5.53;;;15.00;99.90;;;;;;5113607;28;20015;-87
2022/10/09 08:23:03;;;;;;;10.48;6.10;;;15.20;99.90;;;;;;5113016;28;20146;-87
2022/10/09 08:25:29;;;;;;;11.20;6.90;;;14.80;99.90;;;;;;5094383;28;20031;-87
2022/10/09 08:27:55;;;;;;;11.80;6.32;;;14.80;99.90;;;;;;5095120;28;20395;-87
2022/10/09 08:30:21;;;;;;;9.50;6.05;;;14.90;99.90;;;;;;5112727;28;20407;-87
2022/10/09 08:32:46;;;;;;;8.48;6.28;;;15.00;99.90;;;;;;5113118;28;20030;-87
2022/10/09 08:35:12;;;;;;;10.20;5.68;;;15.70;99.90;;;;;;5111818;28;20047;-87
2022/10/09 08:37:38;;;;;;;7.05;5.25;;;16.30;99.90;;;;;;5094771;28;20434;-87
2022/10/09 08:40:05;;;;;;;9.95;5.45;;;18.20;99.90;;;;;;5112456;28;20074;-88
2022/10/09 08:42:41;;;;;;;9.77;5.90;;;19.10;99.90;;;;;;5112850;28;20468;-87
2022/10/09 08:45:16;;;;;;;8.70;6.18;;;18.80;99.90;;;;;;5112612;28;20028;-87
2022/10/09 08:48:00;;;;;;;8.27;5.90;;;18.60;99.90;;;;;;5112915;28;20424;-88
2022/10/09 08:50:33;;;;;;;11.48;6.88;;;18.50;99.90;;;;;;5094785;28;20373;-88
2022/10/09 08:53:07;;;;;;;8.65;6.30;;;20.50;99.90;;;;;;5113028;28;20028;-88
2022/10/09 08:56:04;;;;;;;8.18;5.50;;;21.30;99.90;;;;;;5112643;28;20063;-87
2022/10/09 08:58:33;;;;;;;6.90;5.22;;;23.90;99.90;;;;;;5112569;28;20032;-87
2022/10/09 09:01:01;;;;;;;7.25;6.30;;;27.70;99.90;;;;;;5112783;28;20020;-88
2022/10/09 09:03:52;;;;;;;8.45;6.30;;;26.20;99.90;;;;;;5112679;28;20031;-88
2022/10/09 09:07:02;;;;;;;9.52;6.05;;;24.50;99.90;;;;;;5112912;28;20037;-88
2022/10/09 09:09:36;;;;;;;7.15;5.47;;;22.60;99.90;;;;;;5010130;28;20038;-87
2022/10/09 09:12:16;;;;;;;5.90;5.30;;;23.40;99.90;;;;;;5010133;28;20067;-87
2022/10/09 09:15:00;;;;;;;9.43;5.93;;;25.20;99.90;;;;;;5009949;28;20367;-88
2022/10/09 09:17:44;;;;;;;6.32;5.72;;;26.10;99.90;;;;;;4993632;28;20026;-88
2022/10/09 09:20:14;;;;;;;8.95;5.30;;;24.40;99.90;;;;;;5009833;28;20088;-88
2022/10/09 09:22:45;;;;;;;6.88;5.07;;;23.80;99.90;;;;;;4993210;28;20420;-88
2022/10/09 09:25:27;;;;;;;7.45;4.80;;;23.80;99.90;;;;;;4993417;28;20506;-87
2022/10/09 09:27:56;;;;;;;7.32;4.32;;;24.90;99.90;;;;;;4993845;28;20585;-88
2022/10/09 09:30:27;;;;;;;7.28;4.18;;;24.20;99.90;;;;;;4993500;28;20034;-88
2022/10/09 09:33:11;;;;;;;5.22;3.97;;;25.30;99.90;;;;;;5009799;28;20129;-88
2022/10/09 09:36:07;;;;;;;5.82;4.10;;;27.30;99.90;;;;;;5009869;28;20048;-87
2022/10/09 09:38:34;;;;;;;6.45;3.83;;;27.40;99.90;;;;;;5009382;28;20100;-88
2022/10/09 09:41:00;;;;;;;5.88;3.80;;;27.90;99.90;;;;;;5009683;28;20413;-88
2022/10/09 09:43:26;;;;;;;5.90;3.63;;;28.30;99.90;;;;;;5009531;28;20129;-88
2022/10/09 09:45:54;;;;;;;4.78;3.30;;;28.80;99.90;;;;;;5086930;28;20127;-88
2022/10/09 09:48:28;;;;;;;7.43;3.78;;;29.60;99.90;;;;;;5111331;28;20036;-88
2022/10/09 09:50:54;;;;;;;5.72;3.55;;;29.40;99.90;;;;;;5095520;28;20025;-88
2022/10/09 09:53:26;;;;;;;6.50;4.13;;;30.80;99.90;;;;;;5095279;28;20024;-87
2022/10/09 09:55:53;;;;;;;6.53;3.60;;;30.50;99.90;;;;;;5095349;28;20024;-88
2022/10/09 09:58:20;;;;;;;5.57;3.85;;;31.90;99.90;;;;;;5095406;28;20525;-88
2022/10/09 10:00:54;;;;;;;5.65;3.50;;;33.10;99.90;;;;;;5095428;28;20059;-88
2022/10/09 10:03:20;;;;;;;5.75;4.20;;;32.60;99.90;;;;;;5106145;28;20038;-88
2022/10/09 10:05:46;;;;;;;5.03;3.58;;;31.90;99.90;;;;;;5096960;28;20036;-88
2022/10/09 10:08:29;;;;;;;3.70;3.38;;;31.00;99.90;;;;;;5116044;28;20022;-88
2022/10/09 10:11:01;;;;;;;7.25;3.75;;;29.20;99.90;;;;;;5115456;28;20019;-87
2022/10/09 10:13:37;;;;;;;6.55;4.00;;;29.80;99.90;;;;;;5115899;28;20019;-88
2022/10/09 10:16:06;;;;;;;4.30;3.55;;;32.00;99.90;;;;;;5115814;28;20052;-88
2022/10/09 10:18:38;;;;;;;4.78;3.80;;;32.70;99.90;;;;;;5097089;28;20023;-88
2022/10/09 10:21:10;;;;;;;8.02;3.72;;;33.10;99.90;;;;;;5115066;28;20019;-88
2022/10/09 10:23:40;;;;;;;5.72;4.00;;;35.30;99.90;;;;;;5115355;28;20472;-88
2022/10/09 10:26:28;;;;;;;5.22;3.60;;;34.60;99.90;;;;;;5115599;28;20034;-88
2022/10/09 10:29:03;;;;;;;5.78;3.42;;;33.80;99.90;;;;;;5115101;28;20023;-88
2022/10/09 10:31:52;;;;;;;6.55;3.55;;;33.60;99.90;;;;;;5115345;28;20038;-88
2022/10/09 10:34:35;;;;;;;7.72;3.88;;;34.10;99.90;;;;;;5096784;28;20097;-88
2022/10/09 10:37:13;;;;;;;5.25;3.85;;;34.50;99.90;;;;;;5115144;28;20499;-88
2022/10/09 10:40:13;;;;;;;5.95;3.72;;;32.40;99.90;;;;;;5114786;28;20058;-88
2022/10/09 10:42:46;;;;;;;8.10;3.97;;;31.40;99.90;;;;;;5108764;28;20028;-88
2022/10/09 10:45:18;;;;;;;6.40;3.97;;;32.30;99.90;;;;;;5114750;28;20449;-88
2022/10/09 10:47:53;;;;;;;5.30;4.00;;;34.20;99.90;;;;;;5114918;28;20023;-88
2022/10/09 10:50:20;;;;;;;6.88;3.90;;;34.70;99.90;;;;;;5130511;27;20024;-88
2022/10/09 10:52:54;;;;;;;7.30;4.03;;;35.30;99.90;;;;;;5115203;28;20475;-88
2022/10/09 10:55:31;;;;;;;5.75;3.67;;;35.40;99.90;;;;;;5114772;28;20299;-88
2022/10/09 10:58:20;;;;;;;5.95;3.80;;;35.40;99.90;;;;;;5113887;28;20478;-88
2022/10/09 11:01:02;;;;;;;4.90;3.70;;;35.30;99.90;;;;;;5114872;28;20099;-88
2022/10/09 11:03:38;;;;;;;6.45;3.70;;;34.00;99.90;;;;;;5114387;28;20605;-88
2022/10/09 11:06:33;;;;;;;5.85;3.65;;;33.10;99.90;;;;;;5114652;28;20031;-88
2022/10/09 11:09:10;;;;;;;5.53;3.83;;;32.60;99.90;;;;;;5113630;28;20043;-88
2022/10/09 11:11:53;;;;;;;5.13;4.03;;;33.40;99.90;;;;;;5114677;28;20084;-88
2022/10/09 11:14:38;;;;;;;5.63;4.07;;;33.80;99.90;;;;;;5114317;28;20031;-88
2022/10/09 11:17:27;;;;;;;4.85;3.33;;;34.60;99.90;;;;;;5114317;28;20085;-88
2022/10/09 11:20:12;;;;;;;7.18;4.28;;;33.90;99.90;;;;;;5113880;28;20214;-88
2022/10/09 11:22:54;;;;;;;4.57;3.70;;;33.50;99.90;;;;;;5114203;28;20028;-87
2022/10/09 11:25:34;;;;;;;6.43;4.07;;;33.30;99.90;;;;;;5114007;28;20412;-88
2022/10/09 11:28:13;;;;;;;8.88;4.30;;;32.50;99.90;;;;;;5114075;28;20020;-88
2022/10/09 11:30:54;;;;;;;8.25;4.43;;;33.80;99.90;;;;;;5096154;28;20027;-88
2022/10/09 11:33:28;;;;;;;6.40;4.13;;;34.80;99.90;;;;;;5113497;28;20026;-88
2022/10/09 11:36:09;;;;;;;7.93;4.20;;;34.80;99.90;;;;;;5113913;28;20098;-88
2022/10/09 11:38:45;;;;;;;5.07;3.70;;;34.30;99.90;;;;;;5095657;28;20502;-88
2022/10/09 11:41:11;;;;;;;7.45;4.80;;;31.50;99.90;;;;;;5095401;28;20020;-88
2022/10/09 11:43:59;;;;;;;4.82;4.30;;;30.20;99.90;;;;;;5113668;28;20027;-88
2022/10/09 11:46:36;;;;;;;8.25;4.30;;;31.70;99.90;;;;;;5114114;28;20028;-88
2022/10/09 11:49:23;;;;;;;7.45;4.60;;;29.70;99.90;;;;;;5113288;28;20027;-88
2022/10/09 11:52:15;;;;;;;9.30;4.72;;;29.30;99.90;;;;;;5113588;28;20019;-88
2022/10/09 11:54:41;;;;;;;6.68;4.40;;;29.50;99.90;;;;;;5113445;28;20050;-88
2022/10/09 11:57:07;;;;;;;5.05;4.53;;;29.70;99.90;;;;;;5113561;28;20059;-88
2022/10/09 11:59:40;;;;;;;7.18;4.40;;;28.30;99.90;;;;;;5095743;28;20028;-88
2022/10/09 12:02:33;;;;;;;6.07;4.50;;;29.10;99.90;;;;;;5112949;28;20474;-88
2022/10/09 12:04:58;;;;;;;5.82;3.90;;;28.30;99.90;;;;;;5108926;28;20051;-88
2022/10/09 12:07:34;;;;;;;5.00;4.03;;;29.10;99.90;;;;;;5113442;28;20400;-87
2022/10/09 12:10:20;;;;;;;6.90;4.28;;;28.70;99.90;;;;;;5113253;28;20058;-88
2022/10/09 12:12:55;;;;;;;4.95;4.05;;;29.40;99.90;;;;;;5113431;28;20028;-88
2022/10/09 12:15:51;;;;;;;6.03;4.20;;;29.00;99.90;;;;;;5113403;28;20015;-88
2022/10/09 12:18:49;;;;;;;9.35;4.90;;;29.00;99.90;;;;;;5112856;28;20388;-88
2022/10/09 12:21:27;;;;;;;4.68;4.22;;;28.20;99.90;;;;;;5010512;28;20128;-88
2022/10/09 12:23:53;;;;;;;7.30;5.25;;;28.40;99.90;;;;;;5010380;28;20050;-88
2022/10/09 12:26:22;;;;;;;10.98;5.13;;;27.50;99.90;;;;;;5010607;28;20033;-87
2022/10/09 12:28:55;;;;;;;6.30;5.10;;;26.80;99.90;;;;;;5010985;28;20068;-88
2022/10/09 12:31:31;;;;;;;7.70;5.35;;;25.60;99.90;;;;;;5019484;28;20101;-88
2022/10/09 12:34:13;;;;;;;10.25;4.55;;;25.90;99.90;;;;;;5029976;28;20045;-87
2022/10/09 12:36:39;;;;;;;7.35;4.60;;;26.40;99.90;;;;;;5030153;28;20038;-87
2022/10/09 12:39:18;;;;;;;8.73;4.93;;;26.20;99.90;;;;;;5029953;28;20037;-87
2022/10/09 12:41:46;;;;;;;6.13;4.95;;;26.70;99.90;;;;;;5030326;28;20052;-88
2022/10/09 12:44:35;;;;;;;10.38;4.80;;;26.60;99.90;;;;;;5029925;28;20137;-88
2022/10/09 12:47:07;;;;;;;6.70;4.95;;;26.30;99.90;;;;;;5030384;28;20034;-88
2022/10/09 12:49:33;;;;;;;8.00;4.53;;;25.60;99.90;;;;;;5030422;28;20389;-88
2022/10/09 12:51:59;;;;;;;7.57;4.68;;;25.20;99.90;;;;;;5029888;28;20033;-87
2022/10/09 12:54:28;;;;;;;5.97;4.40;;;25.60;99.90;;;;;;5046306;28;20025;-88
2022/10/09 12:56:56;;;;;;;6.28;4.65;;;26.30;99.90;;;;;;5045696;28;20040;-87
2022/10/09 12:59:24;;;;;;;8.40;4.63;;;25.70;99.90;;;;;;5092208;28;20024;-88
2022/10/09 13:01:54;;;;;;;7.38;4.30;;;25.80;99.90;;;;;;5092134;28;20020;-87
2022/10/09 13:04:25;;;;;;;5.97;4.53;;;25.50;99.90;;;;;;5111639;28;20032;-88